createdAt,value
2022-10-09T00:01:19.048Z,24.40
2022-10-09T00:03:49.642Z,21.40
2022-10-09T00:06:20.439Z,23.93
2022-10-09T00:08:48.826Z,29.17
2022-10-09T00:11:20.581Z,19.63
2022-10-09T00:13:48.844Z,21.83
2022-10-09T00:16:18.886Z,26.83
2022-10-09T00:18:47.574Z,21.80
2022-10-09T00:21:21.113Z,20.00
2022-10-09T00:23:50.080Z,27.73
2022-10-09T00:26:20.067Z,22.10
2022-10-09T00:28:48.549Z,21.60
2022-10-09T00:31:17.511Z,26.67
2022-10-09T00:33:46.126Z,28.07
2022-10-09T00:36:16.492Z,27.97
2022-10-09T00:38:45.325Z,24.80
2022-10-09T00:41:16.809Z,24.87
2022-10-09T00:43:48.454Z,28.30
2022-10-09T00:46:26.659Z,21.83
2022-10-09T00:49:02.092Z,21.70
2022-10-09T00:51:32.224Z,22.23
2022-10-09T00:54:01.149Z,34.33
2022-10-09T00:56:29.889Z,24.00
2022-10-09T00:59:00.190Z,26.40
2022-10-09T01:01:28.611Z,25.60
2022-10-09T01:03:56.888Z,23.33
2022-10-09T01:06:33.802Z,23.70
2022-10-09T01:09:06.616Z,24.40
2022-10-09T01:11:41.454Z,26.20
2022-10-09T01:14:23.872Z,25.97
2022-10-09T01:16:58.152Z,27.20
2022-10-09T01:19:41.530Z,23.57
2022-10-09T01:22:23.126Z,24.13
2022-10-09T01:24:56.642Z,29.07
2022-10-09T01:27:28.714Z,36.10
2022-10-09T01:30:00.847Z,26.27
2022-10-09T01:32:32.679Z,37.63
2022-10-09T01:35:01.710Z,32.23
2022-10-09T01:37:32.992Z,27.27
2022-10-09T01:40:03.002Z,31.60
2022-10-09T01:42:33.577Z,28.00
2022-10-09T01:45:01.951Z,26.03
2022-10-09T01:47:30.465Z,29.30
2022-10-09T01:50:04.381Z,36.43
2022-10-09T01:52:41.594Z,27.33
2022-10-09T01:55:31.312Z,30.13
2022-10-09T01:58:06.633Z,29.90
2022-10-09T02:00:38.744Z,26.20
2022-10-09T02:03:11.495Z,30.00
2022-10-09T02:05:42.199Z,24.20
2022-10-09T02:08:12.246Z,31.93
2022-10-09T02:10:42.277Z,28.73
2022-10-09T02:13:12.444Z,24.90
2022-10-09T02:15:47.805Z,26.07
2022-10-09T02:18:20.270Z,33.43
2022-10-09T02:20:51.998Z,28.67
2022-10-09T02:23:22.769Z,30.00
2022-10-09T02:25:51.951Z,32.03
2022-10-09T02:28:22.618Z,34.43
2022-10-09T02:30:58.681Z,32.07
2022-10-09T02:33:33.393Z,23.90
2022-10-09T02:36:02.492Z,33.40
2022-10-09T02:38:30.798Z,25.63
2022-10-09T02:41:00.052Z,26.03
2022-10-09T02:43:30.165Z,28.30
2022-10-09T02:45:58.637Z,31.27
2022-10-09T02:48:26.947Z,31.97
2022-10-09T02:50:55.114Z,29.73
2022-10-09T02:53:23.293Z,30.93
2022-10-09T02:55:51.785Z,26.10
2022-10-09T02:58:20.000Z,29.83
2022-10-09T03:00:51.503Z,27.33
2022-10-09T03:03:20.583Z,26.40
2022-10-09T03:05:49.618Z,30.17
2022-10-09T03:08:17.789Z,27.87
2022-10-09T03:10:46.257Z,25.93
2022-10-09T03:13:14.522Z,25.43
2022-10-09T03:15:42.798Z,30.87
2022-10-09T03:18:12.357Z,25.10
2022-10-09T03:20:40.828Z,24.23
2022-10-09T03:23:09.038Z,23.73
2022-10-09T03:25:37.652Z,26.70
2022-10-09T03:28:06.160Z,31.47
2022-10-09T03:30:34.492Z,30.63
2022-10-09T03:33:02.689Z,30.20
2022-10-09T03:35:32.440Z,38.60
2022-10-09T03:38:00.724Z,27.17
2022-10-09T03:40:29.081Z,34.97
2022-10-09T03:42:57.297Z,34.47
2022-10-09T03:45:25.883Z,31.13
2022-10-09T03:47:54.167Z,38.17
2022-10-09T03:50:22.497Z,31.70
2022-10-09T03:52:52.193Z,39.60
2022-10-09T03:55:20.581Z,36.00
2022-10-09T03:57:48.788Z,36.67
2022-10-09T04:00:17.225Z,37.13
2022-10-09T04:02:45.624Z,41.27
2022-10-09T04:05:14.172Z,38.97
2022-10-09T04:07:42.395Z,38.67
2022-10-09T04:10:12.622Z,47.60
2022-10-09T04:12:41.127Z,40.53
2022-10-09T04:15:10.613Z,36.77
2022-10-09T04:17:40.005Z,32.73
2022-10-09T04:20:09.067Z,39.90
2022-10-09T04:22:37.308Z,38.43
2022-10-09T04:25:05.909Z,41.53
2022-10-09T04:27:35.659Z,39.03
2022-10-09T04:30:04.110Z,39.40
2022-10-09T04:32:32.358Z,36.47
2022-10-09T04:35:00.580Z,34.00
2022-10-09T04:37:28.778Z,38.57
2022-10-09T04:39:56.958Z,39.33
2022-10-09T04:42:25.285Z,41.43
2022-10-09T04:44:54.778Z,44.80
2022-10-09T04:47:22.975Z,50.53
2022-10-09T04:49:51.253Z,43.93
2022-10-09T04:52:19.439Z,54.13
2022-10-09T04:54:47.790Z,50.97
2022-10-09T04:57:16.367Z,60.07
2022-10-09T04:59:44.686Z,57.23
2022-10-09T05:02:14.189Z,65.40
2022-10-09T05:04:44.036Z,62.87
2022-10-09T05:07:12.580Z,64.23
2022-10-09T05:09:40.879Z,60.73
2022-10-09T05:12:09.420Z,63.33
2022-10-09T05:14:37.801Z,74.37
2022-10-09T05:17:13.969Z,73.63
2022-10-09T05:19:44.230Z,83.03
2022-10-09T05:22:12.441Z,79.63
2022-10-09T05:24:40.884Z,80.50
2022-10-09T05:27:09.096Z,74.53
2022-10-09T05:29:37.460Z,73.77
2022-10-09T05:32:05.830Z,68.40
2022-10-09T05:34:35.021Z,74.20
2022-10-09T05:37:04.958Z,71.83
2022-10-09T05:39:35.831Z,70.57
2022-10-09T05:42:04.140Z,79.13
2022-10-09T05:44:32.342Z,78.43
2022-10-09T05:47:01.025Z,81.27
2022-10-09T05:49:29.229Z,93.57
2022-10-09T05:51:57.590Z,84.57
2022-10-09T05:54:27.404Z,85.53
2022-10-09T05:56:55.597Z,77.60
2022-10-09T05:59:23.764Z,77.67
2022-10-09T06:01:53.592Z,75.30
2022-10-09T06:04:23.802Z,65.87
2022-10-09T06:06:52.556Z,55.87
2022-10-09T06:09:23.181Z,57.27
2022-10-09T06:11:54.244Z,57.57
2022-10-09T06:14:23.193Z,55.07
2022-10-09T06:16:52.101Z,58.37
2022-10-09T06:19:21.389Z,57.93
2022-10-09T06:21:50.609Z,66.50
2022-10-09T06:24:25.583Z,63.03
2022-10-09T06:26:57.898Z,56.20
2022-10-09T06:29:26.157Z,58.83
2022-10-09T06:31:54.803Z,55.10
2022-10-09T06:34:23.286Z,52.30
2022-10-09T06:36:51.593Z,57.43
2022-10-09T06:39:20.045Z,52.07
2022-10-09T06:41:48.228Z,54.93
2022-10-09T06:44:17.989Z,51.53
2022-10-09T06:46:46.989Z,54.60
2022-10-09T06:49:15.181Z,49.47
2022-10-09T06:51:43.644Z,43.23
2022-10-09T06:54:14.106Z,55.33
2022-10-09T06:56:42.914Z,57.97
2022-10-09T06:59:12.232Z,53.27
2022-10-09T07:01:41.828Z,48.17
2022-10-09T07:04:17.639Z,55.80
2022-10-09T07:06:47.826Z,41.37
2022-10-09T07:09:17.251Z,44.50
2022-10-09T07:11:48.885Z,47.00
2022-10-09T07:14:17.334Z,39.53
2022-10-09T07:16:48.943Z,45.17
2022-10-09T07:19:18.391Z,44.53
2022-10-09T07:21:49.062Z,47.70
2022-10-09T07:24:18.120Z,54.67
2022-10-09T07:26:47.603Z,45.47
2022-10-09T07:29:17.712Z,49.10
2022-10-09T07:31:47.377Z,45.40
2022-10-09T07:34:15.552Z,50.77
2022-10-09T07:36:44.167Z,46.37
2022-10-09T07:39:12.609Z,36.93
2022-10-09T07:41:40.876Z,38.23
2022-10-09T07:44:10.289Z,38.33
2022-10-09T07:46:39.094Z,31.33
2022-10-09T07:49:08.614Z,41.57
2022-10-09T07:51:36.999Z,37.97
2022-10-09T07:54:05.492Z,40.13
2022-10-09T07:56:35.570Z,43.03
2022-10-09T07:59:05.645Z,36.97
2022-10-09T08:01:35.104Z,40.03
2022-10-09T08:04:04.485Z,33.67
2022-10-09T08:06:34.691Z,32.90
2022-10-09T08:09:04.358Z,26.87
2022-10-09T08:11:33.312Z,27.63
2022-10-09T08:14:01.803Z,25.43
2022-10-09T08:16:30.518Z,20.50
2022-10-09T08:19:00.251Z,20.57
2022-10-09T08:21:29.106Z,24.57
2022-10-09T08:24:00.202Z,19.97
2022-10-09T08:26:30.302Z,18.20
2022-10-09T08:29:01.157Z,21.37
2022-10-09T08:31:29.879Z,18.03
2022-10-09T08:34:00.022Z,22.27
2022-10-09T08:36:28.648Z,18.07
2022-10-09T08:38:58.077Z,19.77
2022-10-09T08:41:42.072Z,16.67
2022-10-09T08:44:16.311Z,17.87
2022-10-09T08:47:03.834Z,14.73
2022-10-09T08:49:41.491Z,12.47
2022-10-09T08:52:24.666Z,17.63
2022-10-09T08:54:55.180Z,12.00
2022-10-09T08:57:24.644Z,13.87
2022-10-09T08:59:52.815Z,18.23
2022-10-09T09:02:33.302Z,16.83
2022-10-09T09:05:11.672Z,16.00
2022-10-09T09:07:50.216Z,18.07
2022-10-09T09:10:26.906Z,19.53
2022-10-09T09:12:58.186Z,17.23
2022-10-09T09:15:44.834Z,16.57
2022-10-09T09:18:25.839Z,13.67
2022-10-09T09:20:54.952Z,13.60
2022-10-09T09:23:28.368Z,11.23
2022-10-09T09:25:59.641Z,13.97
2022-10-09T09:28:30.365Z,12.30
2022-10-09T09:31:03.846Z,14.13
2022-10-09T09:33:43.586Z,13.53
2022-10-09T09:36:19.076Z,15.93
2022-10-09T09:39:12.869Z,10.70
2022-10-09T09:41:36.905Z,9.67
2022-10-09T09:44:06.217Z,11.33
2022-10-09T09:46:35.471Z,9.37
2022-10-09T09:49:08.512Z,9.20
2022-10-09T09:51:38.057Z,10.10
2022-10-09T09:54:08.838Z,8.85
2022-10-09T09:57:11.215Z,11.50
2022-10-09T09:59:33.942Z,10.43
2022-10-09T10:02:03.745Z,9.88
2022-10-09T10:04:32.275Z,12.03
2022-10-09T10:07:00.827Z,8.23
2022-10-09T10:09:29.058Z,11.88
2022-10-09T10:12:00.763Z,6.18
2022-10-09T10:14:29.598Z,7.25
2022-10-09T10:17:00.708Z,9.35
2022-10-09T10:19:31.577Z,5.70
2022-10-09T10:22:01.427Z,10.60
2022-10-09T10:24:33.758Z,10.88
2022-10-09T10:27:06.477Z,9.23
2022-10-09T10:29:38.270Z,11.00
2022-10-09T10:32:13.348Z,10.60
2022-10-09T10:34:46.871Z,11.45
2022-10-09T10:37:28.949Z,9.53
2022-10-09T10:40:02.570Z,8.70
2022-10-09T10:42:45.537Z,7.10
2022-10-09T10:45:19.217Z,8.77
2022-10-09T10:47:52.766Z,13.15
2022-10-09T10:50:22.822Z,12.68
2022-10-09T10:53:02.554Z,9.17
2022-10-09T10:55:46.207Z,6.93
2022-10-09T10:58:26.416Z,9.40
2022-10-09T11:01:12.158Z,8.27
2022-10-09T11:03:54.240Z,11.10
2022-10-09T11:06:29.889Z,7.55
2022-10-09T11:09:06.551Z,8.57
2022-10-09T11:11:41.455Z,7.03
2022-10-09T11:14:22.777Z,8.90
2022-10-09T11:17:02.436Z,12.15
2022-10-09T11:19:57.644Z,10.10
2022-10-09T11:22:41.220Z,6.82
2022-10-09T11:25:21.844Z,13.23
2022-10-09T11:27:55.804Z,8.95
2022-10-09T11:30:26.749Z,6.82
2022-10-09T11:33:02.066Z,6.65
2022-10-09T11:35:35.173Z,5.93
2022-10-09T11:38:07.943Z,6.28
2022-10-09T11:40:42.059Z,6.93
2022-10-09T11:43:22.074Z,6.93
2022-10-09T11:45:56.200Z,5.97
2022-10-09T11:48:36.377Z,7.63
2022-10-09T11:51:10.063Z,6.22
2022-10-09T11:53:40.070Z,9.15
2022-10-09T11:56:10.230Z,6.65
2022-10-09T11:58:38.605Z,8.00
2022-10-09T12:01:23.925Z,6.82
2022-10-09T12:04:01.447Z,5.20
2022-10-09T12:06:30.395Z,7.40
2022-10-09T12:09:01.582Z,8.25
2022-10-09T12:11:30.564Z,9.63
2022-10-09T12:14:00.625Z,8.70
2022-10-09T12:16:40.842Z,5.45
2022-10-09T12:19:24.094Z,8.65
2022-10-09T12:21:58.481Z,9.23
2022-10-09T12:24:28.528Z,5.03
2022-10-09T12:27:01.148Z,6.93
2022-10-09T12:29:33.435Z,7.50
2022-10-09T12:32:09.189Z,7.55
2022-10-09T12:34:43.040Z,7.63
2022-10-09T12:37:13.432Z,8.02
2022-10-09T12:39:41.800Z,5.80
2022-10-09T12:42:19.944Z,7.07
2022-10-09T12:44:49.650Z,8.88
2022-10-09T12:47:23.820Z,6.80
2022-10-09T12:50:00.115Z,8.18
2022-10-09T12:52:28.682Z,8.90
2022-10-09T12:54:57.046Z,5.95
2022-10-09T12:57:28.041Z,7.18
2022-10-09T12:59:57.316Z,9.80
2022-10-09T13:02:26.927Z,7.93
2022-10-09T13:05:02.112Z,5.68
2022-10-09T13:07:32.612Z,7.40
2022-10-09T13:10:07.709Z,8.13
2022-10-09T13:12:36.724Z,8.93
2022-10-09T13:15:06.709Z,8.10
2022-10-09T13:17:38.069Z,8.25
2022-10-09T13:20:25.772Z,7.65
2022-10-09T13:22:56.143Z,7.50
2022-10-09T13:25:24.731Z,9.15
2022-10-09T13:27:53.166Z,6.40
2022-10-09T13:30:21.501Z,6.93
2022-10-09T13:32:50.954Z,10.68
2022-10-09T13:35:21.919Z,8.60
2022-10-09T13:37:50.575Z,7.00
2022-10-09T13:40:21.900Z,7.00
2022-10-09T13:42:54.905Z,8.88
2022-10-09T13:45:23.733Z,6.55
2022-10-09T13:47:53.320Z,4.68
2022-10-09T13:50:21.737Z,10.63
2022-10-09T13:52:49.912Z,5.97
2022-10-09T13:55:18.393Z,7.82
2022-10-09T13:57:48.159Z,6.55
2022-10-09T14:00:16.809Z,8.48
2022-10-09T14:02:45.151Z,5.70
2022-10-09T14:05:14.654Z,7.95
2022-10-09T14:07:42.996Z,5.28
2022-10-09T14:10:14.768Z,6.82
2022-10-09T14:12:43.075Z,5.10
2022-10-09T14:15:11.740Z,6.20
2022-10-09T14:17:40.083Z,7.00
2022-10-09T14:20:09.281Z,6.55
2022-10-09T14:22:38.897Z,8.30
2022-10-09T14:25:08.087Z,6.97
2022-10-09T14:27:38.278Z,5.97
2022-10-09T14:30:09.793Z,9.02
2022-10-09T14:32:38.267Z,6.57
2022-10-09T14:35:06.867Z,6.82
2022-10-09T14:37:41.663Z,8.75
2022-10-09T14:40:12.802Z,12.35
2022-10-09T14:42:41.722Z,8.63
2022-10-09T14:45:11.109Z,8.73
2022-10-09T14:47:39.529Z,8.35
2022-10-09T14:50:08.681Z,9.60
2022-10-09T14:52:36.901Z,7.47
2022-10-09T14:55:05.500Z,6.53
2022-10-09T14:57:35.841Z,8.75
2022-10-09T15:00:05.212Z,8.25
2022-10-09T15:02:33.554Z,7.53
2022-10-09T15:05:01.815Z,7.45
2022-10-09T15:07:31.358Z,8.80
2022-10-09T15:09:59.711Z,8.25
2022-10-09T15:12:28.002Z,9.15
2022-10-09T15:14:57.605Z,5.93
2022-10-09T15:17:25.812Z,5.03
2022-10-09T15:19:54.289Z,5.20
2022-10-09T15:22:22.541Z,8.68
2022-10-09T15:24:51.060Z,5.70
2022-10-09T15:27:19.480Z,10.82
2022-10-09T15:29:47.839Z,6.47
2022-10-09T15:32:17.292Z,8.32
2022-10-09T15:34:45.571Z,10.15
2022-10-09T15:37:13.941Z,7.25
2022-10-09T15:39:42.659Z,9.15
2022-10-09T15:42:10.959Z,7.60
2022-10-09T15:44:39.375Z,8.05
2022-10-09T15:47:08.057Z,4.57
2022-10-09T15:49:37.803Z,6.68
2022-10-09T15:52:06.040Z,5.38
2022-10-09T15:54:34.350Z,6.50
2022-10-09T15:57:02.629Z,6.65
2022-10-09T15:59:31.651Z,6.13
2022-10-09T16:02:00.065Z,6.85
2022-10-09T16:04:29.263Z,5.15
2022-10-09T16:06:59.089Z,5.60
2022-10-09T16:09:27.481Z,5.50
2022-10-09T16:11:55.845Z,3.42
2022-10-09T16:14:24.043Z,4.15
2022-10-09T16:16:52.493Z,5.35
2022-10-09T16:19:20.844Z,7.28
2022-10-09T16:21:50.313Z,5.60
2022-10-09T16:24:20.297Z,6.95
2022-10-09T16:26:50.973Z,7.68
2022-10-09T16:29:19.259Z,6.07
2022-10-09T16:31:47.589Z,7.50
2022-10-09T16:34:16.131Z,6.78
2022-10-09T16:36:44.522Z,6.55
2022-10-09T16:39:12.763Z,5.85
2022-10-09T16:41:42.324Z,5.47
2022-10-09T16:44:14.190Z,5.57
2022-10-09T16:46:42.462Z,6.63
2022-10-09T16:49:19.900Z,7.25
2022-10-09T16:51:51.186Z,6.35
2022-10-09T16:54:19.486Z,6.68
2022-10-09T16:56:49.214Z,8.35
2022-10-09T16:59:17.616Z,5.63
2022-10-09T17:01:47.682Z,9.55
2022-10-09T17:04:16.809Z,5.50
2022-10-09T17:06:46.547Z,5.53
2022-10-09T17:09:15.379Z,6.60
2022-10-09T17:11:43.799Z,5.95
2022-10-09T17:14:14.277Z,7.72
2022-10-09T17:16:44.196Z,7.35
2022-10-09T17:19:12.615Z,11.50
2022-10-09T17:21:41.474Z,7.60
2022-10-09T17:24:12.923Z,8.85
2022-10-09T17:26:41.255Z,6.20
2022-10-09T17:29:09.950Z,7.80
2022-10-09T17:31:39.594Z,13.60
2022-10-09T17:34:08.090Z,24.37
2022-10-09T17:36:38.877Z,21.27
2022-10-09T17:39:11.758Z,22.00
2022-10-09T17:41:40.235Z,23.47
2022-10-09T17:44:09.663Z,16.30
2022-10-09T17:46:39.401Z,15.70
2022-10-09T17:49:07.811Z,14.75
2022-10-09T17:51:39.462Z,13.00
2022-10-09T17:54:11.814Z,13.20
2022-10-09T17:56:41.142Z,13.38
2022-10-09T17:59:09.937Z,16.83
2022-10-09T18:01:39.717Z,20.00
2022-10-09T18:04:08.147Z,14.70
2022-10-09T18:06:36.876Z,11.43
2022-10-09T18:09:05.876Z,13.00
2022-10-09T18:11:34.376Z,17.33
2022-10-09T18:14:03.776Z,20.87
2022-10-09T18:16:36.935Z,25.33
2022-10-09T18:19:09.631Z,32.73
2022-10-09T18:21:40.027Z,34.77
2022-10-09T18:24:08.749Z,41.93
2022-10-09T18:26:37.272Z,43.25
2022-10-09T18:29:05.929Z,32.00
2022-10-09T18:31:34.399Z,34.23
2022-10-09T18:34:02.916Z,42.60
2022-10-09T18:36:34.201Z,62.47
2022-10-09T18:39:04.553Z,71.37
2022-10-09T18:41:33.232Z,66.43
2022-10-09T18:44:02.121Z,58.63
2022-10-09T18:46:35.055Z,41.80
2022-10-09T18:49:03.432Z,23.97
2022-10-09T18:51:33.362Z,21.50
2022-10-09T18:54:04.207Z,17.73
2022-10-09T18:56:34.437Z,23.70
2022-10-09T18:59:04.966Z,17.83
2022-10-09T19:01:33.377Z,16.03
2022-10-09T19:04:01.804Z,15.87
2022-10-09T19:06:30.721Z,13.47
2022-10-09T19:09:01.390Z,15.43
2022-10-09T19:11:30.038Z,13.83
2022-10-09T19:14:00.083Z,16.27
2022-10-09T19:16:29.201Z,15.63
2022-10-09T19:18:57.888Z,16.27
2022-10-09T19:21:26.877Z,14.03
2022-10-09T19:23:55.581Z,12.57
2022-10-09T19:26:25.811Z,14.77
2022-10-09T19:28:54.144Z,14.83
2022-10-09T19:31:22.549Z,15.00
2022-10-09T19:33:50.802Z,15.80
2022-10-09T19:36:19.370Z,14.77
2022-10-09T19:38:48.749Z,14.07
2022-10-09T19:41:17.373Z,15.73
2022-10-09T19:43:46.863Z,12.30
2022-10-09T19:46:17.920Z,14.83
2022-10-09T19:48:46.936Z,15.23
2022-10-09T19:51:16.648Z,12.93
2022-10-09T19:53:44.984Z,15.50
2022-10-09T19:56:15.114Z,13.60
2022-10-09T19:58:44.264Z,14.07
2022-10-09T20:01:15.213Z,18.23
2022-10-09T20:03:43.449Z,17.83
2022-10-09T20:06:12.471Z,18.60
2022-10-09T20:08:42.939Z,16.20
2022-10-09T20:11:11.978Z,17.97
2022-10-09T20:13:42.641Z,19.60
2022-10-09T20:16:14.573Z,20.13
2022-10-09T20:18:43.629Z,22.40
2022-10-09T20:21:13.275Z,17.07
2022-10-09T20:23:41.806Z,20.60
2022-10-09T20:26:12.848Z,18.07
2022-10-09T20:28:41.702Z,19.83
2022-10-09T20:31:16.401Z,16.27
2022-10-09T20:33:45.057Z,20.27
2022-10-09T20:36:21.095Z,23.63
2022-10-09T20:38:49.735Z,23.93
2022-10-09T20:41:18.060Z,21.57
2022-10-09T20:43:46.576Z,18.93
2022-10-09T20:46:16.402Z,16.60
2022-10-09T20:48:45.063Z,18.80
2022-10-09T20:51:13.336Z,20.70
2022-10-09T20:53:41.893Z,21.10
2022-10-09T20:56:14.148Z,24.37
2022-10-09T20:58:42.937Z,26.33
2022-10-09T21:01:14.272Z,21.20
2022-10-09T21:03:44.066Z,22.07
2022-10-09T21:06:14.275Z,19.90
2022-10-09T21:08:42.849Z,21.83
2022-10-09T21:11:12.829Z,20.40
2022-10-09T21:13:41.698Z,27.50
2022-10-09T21:16:11.770Z,23.67
2022-10-09T21:18:40.547Z,23.43
2022-10-09T21:21:11.619Z,22.47
2022-10-09T21:23:40.232Z,22.63
2022-10-09T21:26:12.943Z,22.33
2022-10-09T21:28:41.261Z,24.53
2022-10-09T21:31:10.488Z,21.33
2022-10-09T21:33:39.005Z,27.77
2022-10-09T21:36:13.217Z,19.50
2022-10-09T21:38:41.366Z,24.47
2022-10-09T21:41:09.647Z,25.40
2022-10-09T21:43:38.097Z,19.17
2022-10-09T21:46:06.597Z,27.97
2022-10-09T21:48:35.004Z,20.00
2022-10-09T21:51:03.093Z,19.67
2022-10-09T21:53:32.575Z,19.10
2022-10-09T21:56:03.071Z,20.40
2022-10-09T21:58:31.449Z,20.00
2022-10-09T22:01:01.271Z,18.20
2022-10-09T22:03:31.770Z,17.87
2022-10-09T22:06:01.602Z,17.50
2022-10-09T22:08:29.927Z,16.47
2022-10-09T22:10:59.527Z,21.13
2022-10-09T22:13:27.951Z,18.80
2022-10-09T22:15:56.644Z,21.03
2022-10-09T22:18:25.079Z,20.80
2022-10-09T22:20:53.412Z,19.00
2022-10-09T22:23:22.300Z,17.40
2022-10-09T22:26:00.127Z,17.90
2022-10-09T22:28:28.417Z,15.80
2022-10-09T22:31:07.154Z,16.33
2022-10-09T22:33:35.574Z,16.73
2022-10-09T22:36:05.706Z,15.67
2022-10-09T22:38:34.107Z,16.37
2022-10-09T22:41:08.779Z,18.87
2022-10-09T22:43:37.206Z,18.77
2022-10-09T22:46:10.938Z,15.73
2022-10-09T22:48:40.385Z,17.30
2022-10-09T22:51:10.523Z,15.27
2022-10-09T22:53:39.329Z,17.83
2022-10-09T22:56:10.516Z,16.63
2022-10-09T22:58:38.705Z,15.83
2022-10-09T23:01:08.871Z,18.17
2022-10-09T23:03:37.426Z,18.73
2022-10-09T23:06:13.409Z,17.87
2022-10-09T23:08:43.416Z,15.63
2022-10-09T23:11:13.855Z,14.50
2022-10-09T23:13:42.382Z,20.37
2022-10-09T23:16:13.226Z,15.97
2022-10-09T23:18:42.450Z,17.23
2022-10-09T23:21:12.777Z,15.73
2022-10-09T23:23:41.414Z,14.17
2022-10-09T23:26:13.273Z,16.00
2022-10-09T23:28:41.813Z,13.40
2022-10-09T23:31:11.715Z,15.07
2022-10-09T23:33:41.006Z,11.83
2022-10-09T23:36:10.927Z,15.37
2022-10-09T23:38:39.810Z,15.67
2022-10-09T23:41:09.816Z,17.50
2022-10-09T23:43:41.518Z,19.30
2022-10-09T23:46:13.167Z,17.43
2022-10-09T23:48:41.578Z,16.67
2022-10-09T23:51:10.377Z,15.90
2022-10-09T23:53:38.697Z,12.70
2022-10-09T23:56:08.095Z,14.60
2022-10-09T23:58:36.361Z,12.47
